sensor_id;sensor_type;location;lat;lon;timestamp;temperature;humidity
33831;DHT22;20137;48.834;8.732;2023-02-28T00:01:07;-3.20;99.90
33831;DHT22;20137;48.834;8.732;2023-02-28T00:03:33;-3.20;99.90
33831;DHT22;20137;48.834;8.732;2023-02-28T00:06:02;-3.20;99.90
33831;DHT22;20137;48.834;8.732;2023-02-28T00:08:28;-3.20;99.90
33831;DHT22;20137;48.834;8.732;2023-02-28T00:10:54;-3.30;99.90
33831;DHT22;20137;48.834;8.732;2023-02-28T00:13:19;-3.30;99.90
33831;DHT22;20137;48.834;8.732;2023-02-28T00:15:45;-3.30;99.90
33831;DHT22;20137;48.834;8.732;2023-02-28T00:18:11;-3.30;99.90
33831;DHT22;20137;48.834;8.732;2023-02-28T00:20:37;-3.40;99.90
33831;DHT22;20137;48.834;8.732;2023-02-28T00:23:03;-3.40;99.90
33831;DHT22;20137;48.834;8.732;2023-02-28T00:25:28;-3.30;99.90
33831;DHT22;20137;48.834;8.732;2023-02-28T00:27:54;-3.40;99.90
33831;DHT22;20137;48.834;8.732;2023-02-28T00:30:22;-3.50;99.90
33831;DHT22;20137;48.834;8.732;2023-02-28T00:32:48;-3.50;99.90
33831;DHT22;20137;48.834;8.732;2023-02-28T00:35:14;-3.60;99.90
33831;DHT22;20137;48.834;8.732;2023-02-28T00:37:40;-3.50;99.90
33831;DHT22;20137;48.834;8.732;2023-02-28T00:40:07;-3.40;99.90
33831;DHT22;20137;48.834;8.732;2023-02-28T00:42:36;-3.40;99.90
33831;DHT22;20137;48.834;8.732;2023-02-28T00:45:03;-3.50;99.90
33831;DHT22;20137;48.834;8.732;2023-02-28T00:47:33;-3.50;99.90
33831;DHT22;20137;48.834;8.732;2023-02-28T00:49:59;-3.50;99.90
33831;DHT22;20137;48.834;8.732;2023-02-28T00:52:24;-3.50;99.90
33831;DHT22;20137;48.834;8.732;2023-02-28T00:54:50;-3.50;99.90
33831;DHT22;20137;48.834;8.732;2023-02-28T00:57:15;-3.50;99.90
33831;DHT22;20137;48.834;8.732;2023-02-28T00:59:41;-3.50;99.90
33831;DHT22;20137;48.834;8.732;2023-02-28T01:02:07;-3.60;99.90
33831;DHT22;20137;48.834;8.732;2023-02-28T01:04:33;-3.50;99.90
33831;DHT22;20137;48.834;8.732;2023-02-28T01:06:58;-3.60;99.90
33831;DHT22;20137;48.834;8.732;2023-02-28T01:09:24;-3.60;99.90
33831;DHT22;20137;48.834;8.732;2023-02-28T01:11:49;-3.70;99.90
33831;DHT22;20137;48.834;8.732;2023-02-28T01:14:16;-3.60;99.90
33831;DHT22;20137;48.834;8.732;2023-02-28T01:16:42;-3.60;99.90
33831;DHT22;20137;48.834;8.732;2023-02-28T01:19:08;-3.70;99.90
33831;DHT22;20137;48.834;8.732;2023-02-28T01:21:34;-3.70;99.90
33831;DHT22;20137;48.834;8.732;2023-02-28T01:24:03;-3.80;99.90
33831;DHT22;20137;48.834;8.732;2023-02-28T01:26:30;-3.70;99.90
33831;DHT22;20137;48.834;8.732;2023-02-28T01:28:59;-3.80;99.90
33831;DHT22;20137;48.834;8.732;2023-02-28T01:31:24;-3.70;99.90
33831;DHT22;20137;48.834;8.732;2023-02-28T01:33:50;-3.80;99.90
33831;DHT22;20137;48.834;8.732;2023-02-28T01:36:19;-3.80;99.90
33831;DHT22;20137;48.834;8.732;2023-02-28T01:38:45;-3.80;99.90
33831;DHT22;20137;48.834;8.732;2023-02-28T01:41:20;-3.90;99.90
33831;DHT22;20137;48.834;8.732;2023-02-28T01:46:12;-3.90;99.90
33831;DHT22;20137;48.834;8.732;2023-02-28T01:48:42;-3.90;99.90
33831;DHT22;20137;48.834;8.732;2023-02-28T01:51:13;-4.00;99.90
33831;DHT22;20137;48.834;8.732;2023-02-28T01:53:51;-4.00;99.90
33831;DHT22;20137;48.834;8.732;2023-02-28T01:56:22;-4.00;99.90
33831;DHT22;20137;48.834;8.732;2023-02-28T01:58:52;-3.90;99.90
33831;DHT22;20137;48.834;8.732;2023-02-28T02:01:22;-3.90;99.90
33831;DHT22;20137;48.834;8.732;2023-02-28T02:03:55;-3.90;99.90
33831;DHT22;20137;48.834;8.732;2023-02-28T02:06:23;-4.00;99.90
33831;DHT22;20137;48.834;8.732;2023-02-28T02:08:50;-3.90;99.90
33831;DHT22;20137;48.834;8.732;2023-02-28T02:11:18;-4.00;99.90
33831;DHT22;20137;48.834;8.732;2023-02-28T02:16:34;-4.00;99.90
33831;DHT22;20137;48.834;8.732;2023-02-28T02:19:33;-4.00;99.90
33831;DHT22;20137;48.834;8.732;2023-02-28T02:22:47;-4.00;99.90
33831;DHT22;20137;48.834;8.732;2023-02-28T02:25:35;-4.00;99.90
33831;DHT22;20137;48.834;8.732;2023-02-28T02:28:15;-4.10;99.90
33831;DHT22;20137;48.834;8.732;2023-02-28T02:34:08;-4.00;99.90
33831;DHT22;20137;48.834;8.732;2023-02-28T02:36:45;-4.00;99.90
33831;DHT22;20137;48.834;8.732;2023-02-28T02:39:16;-4.00;99.90
33831;DHT22;20137;48.834;8.732;2023-02-28T02:41:53;-4.00;99.90
33831;DHT22;20137;48.834;8.732;2023-02-28T02:47:05;-4.00;99.90
33831;DHT22;20137;48.834;8.732;2023-02-28T02:49:33;-4.00;99.90
33831;DHT22;20137;48.834;8.732;2023-02-28T02:52:06;-3.90;99.90
33831;DHT22;20137;48.834;8.732;2023-02-28T02:54:43;-4.00;99.90
33831;DHT22;20137;48.834;8.732;2023-02-28T02:57:15;-4.00;99.90
33831;DHT22;20137;48.834;8.732;2023-02-28T02:59:43;-3.90;99.90
33831;DHT22;20137;48.834;8.732;2023-02-28T03:02:12;-3.90;99.90
33831;DHT22;20137;48.834;8.732;2023-02-28T03:04:45;-4.00;99.90
33831;DHT22;20137;48.834;8.732;2023-02-28T03:07:13;-4.00;99.90
33831;DHT22;20137;48.834;8.732;2023-02-28T03:09:38;-4.00;99.90
33831;DHT22;20137;48.834;8.732;2023-02-28T03:12:09;-4.00;99.90
33831;DHT22;20137;48.834;8.732;2023-02-28T03:17:30;-4.00;99.90
33831;DHT22;20137;48.834;8.732;2023-02-28T03:20:07;-4.00;99.90
33831;DHT22;20137;48.834;8.732;2023-02-28T03:25:17;-4.00;99.90
33831;DHT22;20137;48.834;8.732;2023-02-28T03:30:29;-3.90;99.90
33831;DHT22;20137;48.834;8.732;2023-02-28T03:33:14;-3.90;99.90
33831;DHT22;20137;48.834;8.732;2023-02-28T03:35:54;-4.00;99.90
33831;DHT22;20137;48.834;8.732;2023-02-28T03:38:27;-4.00;99.90
33831;DHT22;20137;48.834;8.732;2023-02-28T03:41:15;-4.00;99.90
33831;DHT22;20137;48.834;8.732;2023-02-28T03:43:47;-4.00;99.90
33831;DHT22;20137;48.834;8.732;2023-02-28T03:46:17;-4.00;99.90
33831;DHT22;20137;48.834;8.732;2023-02-28T03:48:49;-4.00;99.90
33831;DHT22;20137;48.834;8.732;2023-02-28T03:51:18;-4.00;99.90
33831;DHT22;20137;48.834;8.732;2023-02-28T03:53:52;-4.00;99.90
33831;DHT22;20137;48.834;8.732;2023-02-28T03:56:21;-3.90;99.90
33831;DHT22;20137;48.834;8.732;2023-02-28T03:58:57;-3.90;99.90
33831;DHT22;20137;48.834;8.732;2023-02-28T04:01:33;-3.90;99.90
33831;DHT22;20137;48.834;8.732;2023-02-28T04:04:01;-3.90;99.90
33831;DHT22;20137;48.834;8.732;2023-02-28T04:06:27;-3.90;99.90
33831;DHT22;20137;48.834;8.732;2023-02-28T04:08:55;-3.80;99.90
33831;DHT22;20137;48.834;8.732;2023-02-28T04:11:45;-3.80;99.90
33831;DHT22;20137;48.834;8.732;2023-02-28T04:14:12;-3.80;99.90
33831;DHT22;20137;48.834;8.732;2023-02-28T04:16:40;-3.80;99.90
33831;DHT22;20137;48.834;8.732;2023-02-28T04:19:07;-3.80;99.90
33831;DHT22;20137;48.834;8.732;2023-02-28T04:21:36;-3.90;99.90
33831;DHT22;20137;48.834;8.732;2023-02-28T04:24:03;-3.80;99.90
33831;DHT22;20137;48.834;8.732;2023-02-28T04:26:30;-3.80;99.90
33831;DHT22;20137;48.834;8.732;2023-02-28T04:28:56;-3.90;99.90
33831;DHT22;20137;48.834;8.732;2023-02-28T04:31:22;-3.90;99.90
33831;DHT22;20137;48.834;8.732;2023-02-28T04:33:48;-3.90;99.90
33831;DHT22;20137;48.834;8.732;2023-02-28T04:36:13;-3.90;99.90
33831;DHT22;20137;48.834;8.732;2023-02-28T04:38:40;-3.90;99.90
33831;DHT22;20137;48.834;8.732;2023-02-28T04:41:06;-3.90;99.90
33831;DHT22;20137;48.834;8.732;2023-02-28T04:43:32;-4.00;99.90
33831;DHT22;20137;48.834;8.732;2023-02-28T04:46:00;-4.00;99.90
33831;DHT22;20137;48.834;8.732;2023-02-28T04:48:28;-3.90;99.90
33831;DHT22;20137;48.834;8.732;2023-02-28T04:50:54;-3.90;99.90
33831;DHT22;20137;48.834;8.732;2023-02-28T04:53:21;-3.90;99.90
33831;DHT22;20137;48.834;8.732;2023-02-28T04:55:46;-3.90;99.90
33831;DHT22;20137;48.834;8.732;2023-02-28T04:58:14;-3.90;99.90
33831;DHT22;20137;48.834;8.732;2023-02-28T05:00:40;-3.90;99.90
33831;DHT22;20137;48.834;8.732;2023-02-28T05:03:05;-3.90;99.90
33831;DHT22;20137;48.834;8.732;2023-02-28T05:05:31;-3.80;99.90
33831;DHT22;20137;48.834;8.732;2023-02-28T05:07:57;-3.80;99.90
33831;DHT22;20137;48.834;8.732;2023-02-28T05:10:23;-3.60;99.90
33831;DHT22;20137;48.834;8.732;2023-02-28T05:12:48;-3.70;99.90
33831;DHT22;20137;48.834;8.732;2023-02-28T05:15:16;-3.70;99.90
33831;DHT22;20137;48.834;8.732;2023-02-28T05:17:41;-3.60;99.90
33831;DHT22;20137;48.834;8.732;2023-02-28T05:20:08;-3.70;99.90
33831;DHT22;20137;48.834;8.732;2023-02-28T05:22:36;-3.70;99.90
33831;DHT22;20137;48.834;8.732;2023-02-28T05:25:03;-3.60;99.90
33831;DHT22;20137;48.834;8.732;2023-02-28T05:27:30;-3.60;99.90
33831;DHT22;20137;48.834;8.732;2023-02-28T05:29:56;-3.50;99.90
33831;DHT22;20137;48.834;8.732;2023-02-28T05:32:21;-3.60;99.90
33831;DHT22;20137;48.834;8.732;2023-02-28T05:34:47;-3.60;99.90
33831;DHT22;20137;48.834;8.732;2023-02-28T05:37:13;-3.60;99.90
33831;DHT22;20137;48.834;8.732;2023-02-28T05:39:41;-3.50;99.90
33831;DHT22;20137;48.834;8.732;2023-02-28T05:42:07;-3.50;99.90
33831;DHT22;20137;48.834;8.732;2023-02-28T05:44:33;-3.40;99.90
33831;DHT22;20137;48.834;8.732;2023-02-28T05:46:59;-3.50;99.90
33831;DHT22;20137;48.834;8.732;2023-02-28T05:49:24;-3.50;99.90
33831;DHT22;20137;48.834;8.732;2023-02-28T05:51:50;-3.50;99.90
33831;DHT22;20137;48.834;8.732;2023-02-28T05:54:16;-3.50;99.90
33831;DHT22;20137;48.834;8.732;2023-02-28T05:56:41;-3.50;99.90
33831;DHT22;20137;48.834;8.732;2023-02-28T05:59:13;-3.50;99.90
33831;DHT22;20137;48.834;8.732;2023-02-28T06:01:44;-3.50;99.90
33831;DHT22;20137;48.834;8.732;2023-02-28T06:04:18;-3.50;99.90
33831;DHT22;20137;48.834;8.732;2023-02-28T06:06:48;-3.50;99.90
33831;DHT22;20137;48.834;8.732;2023-02-28T06:09:15;-3.40;99.90
33831;DHT22;20137;48.834;8.732;2023-02-28T06:11:41;-3.40;99.90
33831;DHT22;20137;48.834;8.732;2023-02-28T06:14:09;-3.40;99.90
33831;DHT22;20137;48.834;8.732;2023-02-28T06:16:38;-3.40;99.90
33831;DHT22;20137;48.834;8.732;2023-02-28T06:19:04;-3.30;99.90
33831;DHT22;20137;48.834;8.732;2023-02-28T06:21:30;-3.40;99.90
33831;DHT22;20137;48.834;8.732;2023-02-28T06:23:57;-3.30;99.90
33831;DHT22;20137;48.834;8.732;2023-02-28T06:26:23;-3.30;99.90
33831;DHT22;20137;48.834;8.732;2023-02-28T06:28:49;-3.30;99.90
33831;DHT22;20137;48.834;8.732;2023-02-28T06:31:16;-3.30;99.90
33831;DHT22;20137;48.834;8.732;2023-02-28T06:33:42;-3.20;99.90
33831;DHT22;20137;48.834;8.732;2023-02-28T06:36:09;-3.20;99.90
33831;DHT22;20137;48.834;8.732;2023-02-28T06:38:36;-3.20;99.90
33831;DHT22;20137;48.834;8.732;2023-02-28T06:41:03;-3.20;99.90
33831;DHT22;20137;48.834;8.732;2023-02-28T06:43:31;-3.10;99.90
33831;DHT22;20137;48.834;8.732;2023-02-28T06:45:59;-3.10;99.90
33831;DHT22;20137;48.834;8.732;2023-02-28T06:48:26;-3.10;99.90
33831;DHT22;20137;48.834;8.732;2023-02-28T06:51:00;-3.10;99.90
33831;DHT22;20137;48.834;8.732;2023-02-28T06:53:26;-3.00;99.90
33831;DHT22;20137;48.834;8.732;2023-02-28T06:55:51;-2.90;99.90
33831;DHT22;20137;48.834;8.732;2023-02-28T06:58:18;-2.90;99.90
33831;DHT22;20137;48.834;8.732;2023-02-28T07:00:45;-2.80;99.90
33831;DHT22;20137;48.834;8.732;2023-02-28T07:03:12;-2.80;99.90
33831;DHT22;20137;48.834;8.732;2023-02-28T07:05:39;-2.80;99.90
33831;DHT22;20137;48.834;8.732;2023-02-28T07:08:06;-2.80;99.90
33831;DHT22;20137;48.834;8.732;2023-02-28T07:10:33;-2.70;99.90
33831;DHT22;20137;48.834;8.732;2023-02-28T07:13:00;-2.70;99.90
33831;DHT22;20137;48.834;8.732;2023-02-28T07:15:25;-2.70;99.90
33831;DHT22;20137;48.834;8.732;2023-02-28T07:17:51;-2.70;99.90
33831;DHT22;20137;48.834;8.732;2023-02-28T07:20:17;-2.70;99.90
33831;DHT22;20137;48.834;8.732;2023-02-28T07:22:42;-2.70;99.90
33831;DHT22;20137;48.834;8.732;2023-02-28T07:25:09;-2.70;99.90
33831;DHT22;20137;48.834;8.732;2023-02-28T07:27:34;-2.70;99.90
33831;DHT22;20137;48.834;8.732;2023-02-28T07:30:00;-2.70;99.90
33831;DHT22;20137;48.834;8.732;2023-02-28T07:32:29;-2.60;99.90
33831;DHT22;20137;48.834;8.732;2023-02-28T07:34:55;-2.60;99.90
33831;DHT22;20137;48.834;8.732;2023-02-28T07:37:20;-2.60;99.90
33831;DHT22;20137;48.834;8.732;2023-02-28T07:39:46;-2.60;99.90
33831;DHT22;20137;48.834;8.732;2023-02-28T07:42:11;-2.60;99.90
33831;DHT22;20137;48.834;8.732;2023-02-28T07:44:41;-2.60;99.90
33831;DHT22;20137;48.834;8.732;2023-02-28T07:47:10;-2.60;99.90
33831;DHT22;20137;48.834;8.732;2023-02-28T07:49:36;-2.60;99.90
33831;DHT22;20137;48.834;8.732;2023-02-28T07:52:04;-2.50;99.90
33831;DHT22;20137;48.834;8.732;2023-02-28T07:54:30;-2.60;99.90
33831;DHT22;20137;48.834;8.732;2023-02-28T07:56:56;-2.50;99.90
33831;DHT22;20137;48.834;8.732;2023-02-28T07:59:21;-2.50;99.90
33831;DHT22;20137;48.834;8.732;2023-02-28T08:01:47;-2.50;99.90
33831;DHT22;20137;48.834;8.732;2023-02-28T08:04:18;-2.40;99.90
33831;DHT22;20137;48.834;8.732;2023-02-28T08:06:44;-2.40;99.90
33831;DHT22;20137;48.834;8.732;2023-02-28T08:09:10;-2.30;99.90
33831;DHT22;20137;48.834;8.732;2023-02-28T08:11:36;-2.30;99.90
33831;DHT22;20137;48.834;8.732;2023-02-28T08:14:02;-2.40;99.90
33831;DHT22;20137;48.834;8.732;2023-02-28T08:16:27;-2.40;99.90
33831;DHT22;20137;48.834;8.732;2023-02-28T08:18:53;-2.20;99.90
33831;DHT22;20137;48.834;8.732;2023-02-28T08:21:19;-2.20;99.90
33831;DHT22;20137;48.834;8.732;2023-02-28T08:23:49;-2.00;99.90
33831;DHT22;20137;48.834;8.732;2023-02-28T08:26:16;-2.10;99.90
33831;DHT22;20137;48.834;8.732;2023-02-28T08:28:42;-2.10;99.90
33831;DHT22;20137;48.834;8.732;2023-02-28T08:31:11;-2.10;99.90
33831;DHT22;20137;48.834;8.732;2023-02-28T08:33:38;-2.10;99.90
33831;DHT22;20137;48.834;8.732;2023-02-28T08:36:05;-2.10;99.90
33831;DHT22;20137;48.834;8.732;2023-02-28T08:38:31;-2.00;99.90
33831;DHT22;20137;48.834;8.732;2023-02-28T08:41:02;-2.00;99.90
33831;DHT22;20137;48.834;8.732;2023-02-28T08:43:28;-1.90;99.90
33831;DHT22;20137;48.834;8.732;2023-02-28T08:45:57;-2.00;99.90
33831;DHT22;20137;48.834;8.732;2023-02-28T08:48:24;-1.90;99.90
33831;DHT22;20137;48.834;8.732;2023-02-28T08:51:16;-1.80;99.90
33831;DHT22;20137;48.834;8.732;2023-02-28T08:53:44;-1.80;99.90
33831;DHT22;20137;48.834;8.732;2023-02-28T08:56:15;-1.80;99.90
33831;DHT22;20137;48.834;8.732;2023-02-28T08:58:42;-1.80;99.90
33831;DHT22;20137;48.834;8.732;2023-02-28T09:01:18;-1.80;99.90
33831;DHT22;20137;48.834;8.732;2023-02-28T09:03:45;-1.80;99.90
33831;DHT22;20137;48.834;8.732;2023-02-28T09:06:12;-1.70;99.90
33831;DHT22;20137;48.834;8.732;2023-02-28T09:08:40;-1.60;99.90
33831;DHT22;20137;48.834;8.732;2023-02-28T09:11:06;-1.70;99.90
33831;DHT22;20137;48.834;8.732;2023-02-28T09:13:32;-1.80;99.90
33831;DHT22;20137;48.834;8.732;2023-02-28T09:16:00;-1.70;99.90
33831;DHT22;20137;48.834;8.732;2023-02-28T09:18:26;-1.70;99.90
33831;DHT22;20137;48.834;8.732;2023-02-28T09:20:52;-1.60;99.90
33831;DHT22;20137;48.834;8.732;2023-02-28T09:23:18;-1.50;99.90
33831;DHT22;20137;48.834;8.732;2023-02-28T09:25:52;-1.30;99.90
33831;DHT22;20137;48.834;8.732;2023-02-28T09:28:19;-1.30;99.90
33831;DHT22;20137;48.834;8.732;2023-02-28T09:30:48;-1.20;99.90
33831;DHT22;20137;48.834;8.732;2023-02-28T09:33:14;-1.10;99.90
33831;DHT22;20137;48.834;8.732;2023-02-28T09:35:41;-1.10;99.90
33831;DHT22;20137;48.834;8.732;2023-02-28T09:38:09;-1.00;99.90
33831;DHT22;20137;48.834;8.732;2023-02-28T09:40:39;-0.90;99.90
33831;DHT22;20137;48.834;8.732;2023-02-28T09:43:11;-1.00;99.90
33831;DHT22;20137;48.834;8.732;2023-02-28T09:45:41;-1.00;99.90
33831;DHT22;20137;48.834;8.732;2023-02-28T09:48:17;-0.90;99.90
33831;DHT22;20137;48.834;8.732;2023-02-28T09:50:50;-0.70;99.90
33831;DHT22;20137;48.834;8.732;2023-02-28T09:53:31;-0.70;99.90
33831;DHT22;20137;48.834;8.732;2023-02-28T09:56:05;-0.50;99.90
33831;DHT22;20137;48.834;8.732;2023-02-28T09:59:04;-0.50;99.90
33831;DHT22;20137;48.834;8.732;2023-02-28T10:06:35;-0.40;99.90
33831;DHT22;20137;48.834;8.732;2023-02-28T10:09:11;-0.50;99.90
33831;DHT22;20137;48.834;8.732;2023-02-28T10:11:40;-0.30;99.90
33831;DHT22;20137;48.834;8.732;2023-02-28T10:14:22;-0.50;99.90
33831;DHT22;20137;48.834;8.732;2023-02-28T10:19:59;-0.30;99.90
33831;DHT22;20137;48.834;8.732;2023-02-28T10:25:23;-0.20;99.90
33831;DHT22;20137;48.834;8.732;2023-02-28T10:27:51;-0.10;99.90
33831;DHT22;20137;48.834;8.732;2023-02-28T10:30:19;-0.20;99.90
33831;DHT22;20137;48.834;8.732;2023-02-28T10:32:51;-0.10;99.90
33831;DHT22;20137;48.834;8.732;2023-02-28T10:35:20;0.00;99.90
33831;DHT22;20137;48.834;8.732;2023-02-28T10:37:50;-0.10;99.90
33831;DHT22;20137;48.834;8.732;2023-02-28T10:46:00;0.00;99.90
33831;DHT22;20137;48.834;8.732;2023-02-28T10:48:32;0.10;99.90
33831;DHT22;20137;48.834;8.732;2023-02-28T10:50:58;0.10;99.90
33831;DHT22;20137;48.834;8.732;2023-02-28T10:53:28;0.30;99.90
33831;DHT22;20137;48.834;8.732;2023-02-28T10:56:01;0.60;99.90
33831;DHT22;20137;48.834;8.732;2023-02-28T10:59:01;0.80;99.90
33831;DHT22;20137;48.834;8.732;2023-02-28T11:03:56;0.40;99.90
33831;DHT22;20137;48.834;8.732;2023-02-28T11:06:31;0.50;99.90
33831;DHT22;20137;48.834;8.732;2023-02-28T11:08:58;0.50;99.90
33831;DHT22;20137;48.834;8.732;2023-02-28T11:11:27;0.80;99.90
33831;DHT22;20137;48.834;8.732;2023-02-28T11:13:57;0.80;99.90
33831;DHT22;20137;48.834;8.732;2023-02-28T11:16:33;0.70;99.90
33831;DHT22;20137;48.834;8.732;2023-02-28T11:18:59;0.60;99.90
33831;DHT22;20137;48.834;8.732;2023-02-28T11:21:31;0.80;99.90
33831;DHT22;20137;48.834;8.732;2023-02-28T11:24:22;1.20;99.90
33831;DHT22;20137;48.834;8.732;2023-02-28T11:26:48;1.10;99.90
33831;DHT22;20137;48.834;8.732;2023-02-28T11:29:29;1.10;99.90
33831;DHT22;20137;48.834;8.732;2023-02-28T11:34:31;1.50;99.90
33831;DHT22;20137;48.834;8.732;2023-02-28T11:36:59;1.30;99.90
33831;DHT22;20137;48.834;8.732;2023-02-28T11:39:26;1.60;99.90
33831;DHT22;20137;48.834;8.732;2023-02-28T11:42:23;1.60;99.90
33831;DHT22;20137;48.834;8.732;2023-02-28T11:47:52;1.80;99.90
33831;DHT22;20137;48.834;8.732;2023-02-28T11:53:40;1.80;99.90
33831;DHT22;20137;48.834;8.732;2023-02-28T11:57:03;1.90;99.90
33831;DHT22;20137;48.834;8.732;2023-02-28T11:59:28;2.20;99.90
33831;DHT22;20137;48.834;8.732;2023-02-28T12:04:40;2.30;99.90
33831;DHT22;20137;48.834;8.732;2023-02-28T12:07:21;2.50;99.90
33831;DHT22;20137;48.834;8.732;2023-02-28T12:09:57;2.50;99.90
33831;DHT22;20137;48.834;8.732;2023-02-28T12:12:37;2.50;99.90
33831;DHT22;20137;48.834;8.732;2023-02-28T12:15:34;2.20;99.90
33831;DHT22;20137;48.834;8.732;2023-02-28T12:20:40;1.60;99.90
33831;DHT22;20137;48.834;8.732;2023-02-28T12:28:38;1.80;99.90
33831;DHT22;20137;48.834;8.732;2023-02-28T12:31:27;1.90;99.90
33831;DHT22;20137;48.834;8.732;2023-02-28T12:34:01;2.10;99.90
33831;DHT22;20137;48.834;8.732;2023-02-28T12:36:28;2.10;99.90
33831;DHT22;20137;48.834;8.732;2023-02-28T12:39:16;1.90;99.90
33831;DHT22;20137;48.834;8.732;2023-02-28T12:41:58;2.20;99.90
33831;DHT22;20137;48.834;8.732;2023-02-28T12:44:40;1.80;99.90
33831;DHT22;20137;48.834;8.732;2023-02-28T12:47:15;2.00;99.90
33831;DHT22;20137;48.834;8.732;2023-02-28T12:50:02;2.10;99.90
33831;DHT22;20137;48.834;8.732;2023-02-28T12:57:54;2.00;99.90
33831;DHT22;20137;48.834;8.732;2023-02-28T13:00:25;2.10;99.90
33831;DHT22;20137;48.834;8.732;2023-02-28T13:03:19;2.10;99.90
33831;DHT22;20137;48.834;8.732;2023-02-28T13:08:44;2.20;99.90
33831;DHT22;20137;48.834;8.732;2023-02-28T13:11:29;2.20;99.90
33831;DHT22;20137;48.834;8.732;2023-02-28T13:14:04;2.50;99.90
33831;DHT22;20137;48.834;8.732;2023-02-28T13:16:56;2.90;99.90
33831;DHT22;20137;48.834;8.732;2023-02-28T13:19:25;2.70;99.90
33831;DHT22;20137;48.834;8.732;2023-02-28T13:21:51;2.60;99.90
33831;DHT22;20137;48.834;8.732;2023-02-28T13:24:39;2.40;99.90
33831;DHT22;20137;48.834;8.732;2023-02-28T13:29:40;2.40;99.90
33831;DHT22;20137;48.834;8.732;2023-02-28T13:39:54;2.60;99.90
33831;DHT22;20137;48.834;8.732;2023-02-28T13:42:36;2.80;99.90
33831;DHT22;20137;48.834;8.732;2023-02-28T13:47:41;3.30;99.90
33831;DHT22;20137;48.834;8.732;2023-02-28T13:59:02;3.40;99.90
33831;DHT22;20137;48.834;8.732;2023-02-28T14:01:35;3.40;99.90
33831;DHT22;20137;48.834;8.732;2023-02-28T14:06:54;2.70;99.90
33831;DHT22;20137;48.834;8.732;2023-02-28T14:09:36;2.70;99.90
33831;DHT22;20137;48.834;8.732;2023-02-28T14:18:30;2.90;99.90
33831;DHT22;20137;48.834;8.732;2023-02-28T14:21:24;3.20;99.90
33831;DHT22;20137;48.834;8.732;2023-02-28T14:24:13;3.50;99.90
33831;DHT22;20137;48.834;8.732;2023-02-28T14:27:11;3.60;99.90
33831;DHT22;20137;48.834;8.732;2023-02-28T14:37:58;3.30;99.90
33831;DHT22;20137;48.834;8.732;2023-02-28T14:40:32;3.30;99.90
33831;DHT22;20137;48.834;8.732;2023-02-28T14:43:04;3.50;99.90
33831;DHT22;20137;48.834;8.732;2023-02-28T14:45:32;3.30;99.90
33831;DHT22;20137;48.834;8.732;2023-02-28T14:48:00;3.60;99.90
33831;DHT22;20137;48.834;8.732;2023-02-28T14:50:31;3.60;99.90
33831;DHT22;20137;48.834;8.732;2023-02-28T14:52:57;3.70;99.90
33831;DHT22;20137;48.834;8.732;2023-02-28T14:55:35;3.80;99.90
33831;DHT22;20137;48.834;8.732;2023-02-28T14:58:03;3.80;99.90
33831;DHT22;20137;48.834;8.732;2023-02-28T15:00:37;3.70;99.90
33831;DHT22;20137;48.834;8.732;2023-02-28T15:03:32;3.50;99.90
33831;DHT22;20137;48.834;8.732;2023-02-28T15:06:00;3.20;99.90
33831;DHT22;20137;48.834;8.732;2023-02-28T15:08:28;3.00;99.90
33831;DHT22;20137;48.834;8.732;2023-02-28T15:10:58;3.20;99.90
33831;DHT22;20137;48.834;8.732;2023-02-28T15:13:46;3.20;99.90
33831;DHT22;20137;48.834;8.732;2023-02-28T15:16:19;3.10;99.90
33831;DHT22;20137;48.834;8.732;2023-02-28T15:18:57;3.10;99.90
33831;DHT22;20137;48.834;8.732;2023-02-28T15:21:33;3.00;99.90
33831;DHT22;20137;48.834;8.732;2023-02-28T15:24:08;3.00;99.90
33831;DHT22;20137;48.834;8.732;2023-02-28T15:26:39;2.90;99.90
33831;DHT22;20137;48.834;8.732;2023-02-28T15:29:08;2.90;99.90
33831;DHT22;20137;48.834;8.732;2023-02-28T15:31:43;3.00;99.90
33831;DHT22;20137;48.834;8.732;2023-02-28T15:34:20;3.00;99.90
33831;DHT22;20137;48.834;8.732;2023-02-28T15:36:47;3.00;99.90
33831;DHT22;20137;48.834;8.732;2023-02-28T15:39:42;3.00;99.90
33831;DHT22;20137;48.834;8.732;2023-02-28T15:42:16;3.00;99.90
33831;DHT22;20137;48.834;8.732;2023-02-28T15:44:43;3.10;99.90
33831;DHT22;20137;48.834;8.732;2023-02-28T15:47:19;2.90;99.90
33831;DHT22;20137;48.834;8.732;2023-02-28T15:49:52;2.90;99.90
33831;DHT22;20137;48.834;8.732;2023-02-28T15:52:49;3.00;99.90
33831;DHT22;20137;48.834;8.732;2023-02-28T15:55:36;2.80;99.90
33831;DHT22;20137;48.834;8.732;2023-02-28T15:58:10;2.70;99.90
33831;DHT22;20137;48.834;8.732;2023-02-28T16:00:38;2.50;99.90
33831;DHT22;20137;48.834;8.732;2023-02-28T16:03:27;2.70;99.90
33831;DHT22;20137;48.834;8.732;2023-02-28T16:06:24;2.40;99.90
33831;DHT22;20137;48.834;8.732;2023-02-28T16:08:51;2.30;99.90
33831;DHT22;20137;48.834;8.732;2023-02-28T16:11:20;2.30;99.90
33831;DHT22;20137;48.834;8.732;2023-02-28T16:13:46;2.30;99.90
33831;DHT22;20137;48.834;8.732;2023-02-28T16:16:21;2.20;99.90
33831;DHT22;20137;48.834;8.732;2023-02-28T16:18:48;2.20;99.90
33831;DHT22;20137;48.834;8.732;2023-02-28T16:21:13;2.20;99.90
33831;DHT22;20137;48.834;8.732;2023-02-28T16:23:39;2.20;99.90
33831;DHT22;20137;48.834;8.732;2023-02-28T16:26:24;2.20;99.90
33831;DHT22;20137;48.834;8.732;2023-02-28T16:28:51;2.10;99.90
33831;DHT22;20137;48.834;8.732;2023-02-28T16:31:17;2.10;99.90
33831;DHT22;20137;48.834;8.732;2023-02-28T16:33:44;2.10;99.90
33831;DHT22;20137;48.834;8.732;2023-02-28T16:36:14;2.10;99.90
33831;DHT22;20137;48.834;8.732;2023-02-28T16:38:40;2.00;99.90
33831;DHT22;20137;48.834;8.732;2023-02-28T16:41:16;1.90;99.90
33831;DHT22;20137;48.834;8.732;2023-02-28T16:43:46;1.90;99.90
33831;DHT22;20137;48.834;8.732;2023-02-28T16:46:13;2.30;99.90
33831;DHT22;20137;48.834;8.732;2023-02-28T16:48:39;1.80;99.90
33831;DHT22;20137;48.834;8.732;2023-02-28T16:51:08;1.70;99.90
33831;DHT22;20137;48.834;8.732;2023-02-28T16:53:36;1.70;99.90
33831;DHT22;20137;48.834;8.732;2023-02-28T16:56:02;1.60;99.90
33831;DHT22;20137;48.834;8.732;2023-02-28T16:58:28;1.50;99.90
33831;DHT22;20137;48.834;8.732;2023-02-28T17:00:54;1.40;99.90
33831;DHT22;20137;48.834;8.732;2023-02-28T17:03:38;1.50;99.90
33831;DHT22;20137;48.834;8.732;2023-02-28T17:06:05;1.30;99.90
33831;DHT22;20137;48.834;8.732;2023-02-28T17:08:32;1.30;99.90
33831;DHT22;20137;48.834;8.732;2023-02-28T17:10:59;1.20;99.90
33831;DHT22;20137;48.834;8.732;2023-02-28T17:13:24;1.20;99.90
33831;DHT22;20137;48.834;8.732;2023-02-28T17:15:50;1.30;99.90
33831;DHT22;20137;48.834;8.732;2023-02-28T17:18:18;1.10;99.90
33831;DHT22;20137;48.834;8.732;2023-02-28T17:20:45;1.00;99.90
33831;DHT22;20137;48.834;8.732;2023-02-28T17:23:11;1.00;99.90
33831;DHT22;20137;48.834;8.732;2023-02-28T17:25:37;0.80;99.90
33831;DHT22;20137;48.834;8.732;2023-02-28T17:28:08;0.80;99.90
33831;DHT22;20137;48.834;8.732;2023-02-28T17:30:34;0.80;99.90
33831;DHT22;20137;48.834;8.732;2023-02-28T17:33:00;0.70;99.90
33831;DHT22;20137;48.834;8.732;2023-02-28T17:35:26;0.70;99.90
33831;DHT22;20137;48.834;8.732;2023-02-28T17:37:52;0.70;99.90
33831;DHT22;20137;48.834;8.732;2023-02-28T17:40:21;0.70;99.90
33831;DHT22;20137;48.834;8.732;2023-02-28T17:42:48;0.60;99.90
33831;DHT22;20137;48.834;8.732;2023-02-28T17:45:14;0.60;99.90